Time;durP1;ratioP1;P1;durP2;ratioP2;P2;SDS_P1;SDS_P2;PMS_P1;PMS_P2;Temp;Humidity;BMP_temperature;BMP_pressure;BME280_temperature;BME280_humidity;BME280_pressure;Samples;Min_cycle;Max_cycle;Signal;HPM_P1;HPM_P2
2024/04/10 00:01:07;;;;;;;234.47;67.40;;;;;;;;;;5524995;25;20450;-42
2024/04/10 00:03:34;;;;;;;237.20;72.20;;;;;;;;;;5521848;25;20592;-41
2024/04/10 00:06:00;;;;;;;237.40;71.55;;;;;;;;;;5521705;26;20260;-42
2024/04/10 00:08:26;;;;;;;233.30;64.82;;;;;;;;;;5521910;26;20217;-41
2024/04/10 00:10:54;;;;;;;232.93;66.13;;;;;;;;;;5522891;26;20213;-41
2024/04/10 00:13:20;;;;;;;232.07;66.07;;;;;;;;;;5516445;26;20272;-42
2024/04/10 00:15:46;;;;;;;233.93;68.97;;;;;;;;;;5512679;25;20708;-42
2024/04/10 00:18:12;;;;;;;234.40;68.20;;;;;;;;;;5521607;25;20465;-42
2024/04/10 00:20:38;;;;;;;233.73;67.73;;;;;;;;;;5522296;25;20450;-41
2024/04/10 00:23:05;;;;;;;235.27;69.97;;;;;;;;;;5518864;25;20448;-42
2024/04/10 00:25:31;;;;;;;235.35;70.68;;;;;;;;;;5507593;26;20795;-41
2024/04/10 00:27:58;;;;;;;234.25;69.40;;;;;;;;;;5521669;26;20263;-42
2024/04/10 00:30:24;;;;;;;232.63;67.68;;;;;;;;;;5515021;25;20269;-42
2024/04/10 00:32:50;;;;;;;234.33;66.87;;;;;;;;;;5521675;26;20250;-43
2024/04/10 00:35:16;;;;;;;239.60;73.47;;;;;;;;;;5522221;25;20445;-41
2024/04/10 00:37:42;;;;;;;233.63;68.87;;;;;;;;;;5517711;26;20209;-41
2024/04/10 00:40:08;;;;;;;234.93;68.77;;;;;;;;;;5516040;25;20550;-40
2024/04/10 00:42:34;;;;;;;235.50;68.60;;;;;;;;;;5513543;26;20466;-41
2024/04/10 00:45:00;;;;;;;234.10;67.57;;;;;;;;;;5521231;25;20262;-41
2024/04/10 00:47:26;;;;;;;233.00;65.82;;;;;;;;;;5524607;26;20260;-42
2024/04/10 00:49:53;;;;;;;236.88;72.13;;;;;;;;;;5520159;25;20232;-41
2024/04/10 00:52:19;;;;;;;234.50;67.50;;;;;;;;;;5519041;26;20221;-41
2024/04/10 00:54:45;;;;;;;231.77;66.13;;;;;;;;;;5503232;26;20314;-41
2024/04/10 00:57:11;;;;;;;236.05;67.85;;;;;;;;;;5505755;26;20213;-41
2024/04/10 00:59:38;;;;;;;233.33;68.97;;;;;;;;;;5511888;26;20214;-41
2024/04/10 01:02:05;;;;;;;234.77;68.13;;;;;;;;;;5516234;26;20453;-41
2024/04/10 01:04:31;;;;;;;237.95;72.00;;;;;;;;;;5509616;26;20221;-41
2024/04/10 01:06:57;;;;;;;239.80;73.60;;;;;;;;;;5519351;26;20218;-42
2024/04/10 01:09:23;;;;;;;233.27;68.20;;;;;;;;;;5523241;26;20213;-41
2024/04/10 01:11:49;;;;;;;238.02;73.45;;;;;;;;;;5519519;26;20600;-40
2024/04/10 01:14:16;;;;;;;234.50;67.37;;;;;;;;;;5518275;25;20656;-41
2024/04/10 01:16:42;;;;;;;239.65;75.25;;;;;;;;;;5516989;25;20457;-41
2024/04/10 01:19:08;;;;;;;234.23;68.10;;;;;;;;;;5516489;26;20752;-41
2024/04/10 01:21:34;;;;;;;236.82;70.72;;;;;;;;;;5519105;25;20216;-41
2024/04/10 01:24:01;;;;;;;234.65;69.45;;;;;;;;;;5520163;25;20265;-42
2024/04/10 01:26:26;;;;;;;235.23;69.22;;;;;;;;;;5511356;26;20225;-41
2024/04/10 01:28:53;;;;;;;236.50;72.73;;;;;;;;;;5512953;26;20267;-41
2024/04/10 01:31:19;;;;;;;232.18;67.00;;;;;;;;;;5511883;26;20458;-41
2024/04/10 01:33:45;;;;;;;235.73;71.10;;;;;;;;;;5512511;25;20259;-42
2024/04/10 01:36:11;;;;;;;235.27;72.37;;;;;;;;;;5518330;26;20494;-41
2024/04/10 01:38:39;;;;;;;234.35;70.57;;;;;;;;;;5514698;26;20898;-40
2024/04/10 01:41:05;;;;;;;231.98;66.82;;;;;;;;;;5509088;26;20665;-41
2024/04/10 01:43:31;;;;;;;230.77;66.32;;;;;;;;;;5508135;25;20317;-41
2024/04/10 01:45:57;;;;;;;233.27;68.57;;;;;;;;;;5521480;25;20225;-41
2024/04/10 01:48:23;;;;;;;231.77;66.30;;;;;;;;;;5520728;25;20450;-41
2024/04/10 01:50:49;;;;;;;231.50;66.87;;;;;;;;;;5520084;26;20457;-41
2024/04/10 01:53:15;;;;;;;233.77;70.53;;;;;;;;;;5493755;26;20446;-41
2024/04/10 01:55:41;;;;;;;231.43;67.40;;;;;;;;;;5518541;26;20501;-42
2024/04/10 01:58:07;;;;;;;233.33;68.27;;;;;;;;;;5517464;26;20437;-41
2024/04/10 02:00:35;;;;;;;231.37;67.47;;;;;;;;;;5516829;26;20461;-41
2024/04/10 02:03:01;;;;;;;235.10;70.97;;;;;;;;;;5515572;25;20466;-41
2024/04/10 02:05:27;;;;;;;236.83;74.67;;;;;;;;;;5520474;26;20215;-41
2024/04/10 02:07:53;;;;;;;233.87;70.57;;;;;;;;;;5518409;26;20453;-41
2024/04/10 02:10:19;;;;;;;234.45;70.40;;;;;;;;;;5513415;26;20545;-41
2024/04/10 02:12:45;;;;;;;233.10;70.23;;;;;;;;;;5512563;25;20225;-42
2024/04/10 02:15:11;;;;;;;238.57;73.53;;;;;;;;;;5507667;26;20496;-42
2024/04/10 02:17:37;;;;;;;231.63;69.07;;;;;;;;;;5513863;25;20222;-41
2024/04/10 02:20:05;;;;;;;233.23;69.27;;;;;;;;;;5518095;25;20499;-41
2024/04/10 02:22:31;;;;;;;237.40;74.05;;;;;;;;;;5512392;26;20457;-42
2024/04/10 02:24:57;;;;;;;233.83;69.23;;;;;;;;;;5493298;26;20332;-41
2024/04/10 02:27:23;;;;;;;232.60;70.87;;;;;;;;;;5494966;26;20504;-41
2024/04/10 02:29:49;;;;;;;231.63;66.50;;;;;;;;;;5521715;26;20455;-42
2024/04/10 02:32:15;;;;;;;232.77;68.20;;;;;;;;;;5520470;25;20448;-42
2024/04/10 02:34:41;;;;;;;232.47;67.47;;;;;;;;;;5521480;26;21000;-41
2024/04/10 02:37:07;;;;;;;236.40;72.38;;;;;;;;;;5520477;26;21053;-41
2024/04/10 02:39:33;;;;;;;235.32;72.13;;;;;;;;;;5518184;25;20217;-41
2024/04/10 02:41:59;;;;;;;231.20;67.73;;;;;;;;;;5516800;25;20340;-41
2024/04/10 02:44:25;;;;;;;229.18;67.80;;;;;;;;;;5516305;26;20508;-41
2024/04/10 02:46:51;;;;;;;234.30;70.67;;;;;;;;;;5514523;26;20221;-42
2024/04/10 02:49:17;;;;;;;229.60;64.82;;;;;;;;;;5523007;25;20516;-40
2024/04/10 02:51:43;;;;;;;231.60;66.50;;;;;;;;;;5515329;25;20219;-41
2024/04/10 02:54:09;;;;;;;233.47;69.10;;;;;;;;;;5512944;25;20509;-41
2024/04/10 02:56:35;;;;;;;232.33;68.63;;;;;;;;;;5511656;26;20453;-42
2024/04/10 02:59:01;;;;;;;236.10;71.67;;;;;;;;;;5510914;26;20509;-41
2024/04/10 03:01:27;;;;;;;233.37;69.70;;;;;;;;;;5517607;25;20452;-41
2024/04/10 03:03:53;;;;;;;232.53;67.83;;;;;;;;;;5520592;25;20452;-42
2024/04/10 03:06:19;;;;;;;230.77;68.10;;;;;;;;;;5511817;26;20442;-42
2024/04/10 03:08:45;;;;;;;231.97;67.47;;;;;;;;;;5511229;26;21043;-42
2024/04/10 03:11:13;;;;;;;231.23;66.50;;;;;;;;;;5510662;25;20446;-43
2024/04/10 03:13:40;;;;;;;232.85;69.35;;;;;;;;;;5524252;26;20512;-42
2024/04/10 03:16:06;;;;;;;235.18;70.35;;;;;;;;;;5522914;26;20228;-41
2024/04/10 03:18:32;;;;;;;233.07;70.77;;;;;;;;;;5526105;25;20262;-41
2024/04/10 03:20:58;;;;;;;232.57;68.20;;;;;;;;;;5522174;25;20558;-42
2024/04/10 03:23:24;;;;;;;231.17;67.40;;;;;;;;;;5520853;26;20230;-42
2024/04/10 03:26:00;;;;;;;229.10;64.68;;;;;;;;;;5512478;25;20858;-43
2024/04/10 03:28:26;;;;;;;231.77;67.65;;;;;;;;;;5518899;26;20703;-42
2024/04/10 03:30:55;;;;;;;232.07;68.53;;;;;;;;;;5518011;26;20243;-42
2024/04/10 03:33:22;;;;;;;231.30;66.10;;;;;;;;;;5524470;25;20445;-41
2024/04/10 03:35:48;;;;;;;230.82;66.50;;;;;;;;;;5518623;25;20223;-42
2024/04/10 03:38:14;;;;;;;228.17;64.10;;;;;;;;;;5515631;26;20266;-42
2024/04/10 03:40:41;;;;;;;230.88;66.63;;;;;;;;;;5514754;26;20474;-41
2024/04/10 03:43:08;;;;;;;229.65;64.40;;;;;;;;;;5513555;26;20225;-41
2024/04/10 03:45:34;;;;;;;228.93;64.07;;;;;;;;;;5516471;25;20725;-41
2024/04/10 03:48:00;;;;;;;230.90;64.97;;;;;;;;;;5520427;26;20224;-41
2024/04/10 03:50:26;;;;;;;232.20;66.47;;;;;;;;;;5513155;26;20269;-41
2024/04/10 03:52:52;;;;;;;231.17;66.77;;;;;;;;;;5510573;26;20525;-41
2024/04/10 03:55:18;;;;;;;230.17;64.97;;;;;;;;;;5509824;26;20513;-42
2024/04/10 03:57:44;;;;;;;229.98;63.92;;;;;;;;;;5523640;26;20590;-43
2024/04/10 04:00:10;;;;;;;229.23;64.93;;;;;;;;;;5522439;25;20236;-41
2024/04/10 04:02:36;;;;;;;231.55;68.13;;;;;;;;;;5525075;26;20444;-41
2024/04/10 04:05:02;;;;;;;233.47;67.97;;;;;;;;;;5516086;25;20282;-43
2024/04/10 04:07:28;;;;;;;228.15;63.92;;;;;;;;;;5513116;26;20512;-41
2024/04/10 04:09:54;;;;;;;228.10;63.27;;;;;;;;;;5519338;26;20218;-42
2024/04/10 04:12:20;;;;;;;228.33;62.90;;;;;;;;;;5518325;26;20448;-42
2024/04/10 04:14:46;;;;;;;231.57;69.27;;;;;;;;;;5518445;26;20590;-42
2024/04/10 04:17:12;;;;;;;231.27;69.53;;;;;;;;;;5503598;26;21016;-41
2024/04/10 04:19:38;;;;;;;231.53;67.00;;;;;;;;;;5515628;26;20452;-41
2024/04/10 04:22:04;;;;;;;232.57;68.70;;;;;;;;;;5515100;26;20459;-42
2024/04/10 04:24:30;;;;;;;230.40;65.20;;;;;;;;;;5506232;26;20446;-42
2024/04/10 04:26:56;;;;;;;228.77;64.33;;;;;;;;;;5503605;26;20223;-41
2024/04/10 04:29:22;;;;;;;230.63;66.72;;;;;;;;;;5504780;26;20786;-41
2024/04/10 04:31:51;;;;;;;232.77;70.05;;;;;;;;;;5512142;26;20251;-41
2024/04/10 04:34:17;;;;;;;232.23;69.53;;;;;;;;;;5499403;25;20315;-42
2024/04/10 04:36:43;;;;;;;234.27;70.22;;;;;;;;;;5517898;26;20226;-41
2024/04/10 04:39:13;;;;;;;228.40;67.00;;;;;;;;;;5523055;25;20345;-41
2024/04/10 04:41:39;;;;;;;232.85;68.95;;;;;;;;;;5503881;25;20560;-42
2024/04/10 04:44:05;;;;;;;233.20;71.17;;;;;;;;;;5517921;25;20258;-41
2024/04/10 04:46:31;;;;;;;232.33;69.50;;;;;;;;;;5520921;26;20501;-41
2024/04/10 04:48:57;;;;;;;234.00;68.63;;;;;;;;;;5521571;26;20456;-41
2024/04/10 04:51:23;;;;;;;231.00;67.97;;;;;;;;;;5518666;25;20452;-41
2024/04/10 04:53:49;;;;;;;234.17;70.37;;;;;;;;;;5516259;26;20509;-42
2024/04/10 04:56:15;;;;;;;229.25;64.97;;;;;;;;;;5517919;25;20917;-42
2024/04/10 04:58:40;;;;;;;230.10;66.73;;;;;;;;;;5518256;25;20261;-42
2024/04/10 05:01:07;;;;;;;232.40;66.77;;;;;;;;;;5522305;26;20549;-41
2024/04/10 05:06:17;;;;;;;230.45;66.38;;;;;;;;;;5507346;26;20262;-42
2024/04/10 05:08:43;;;;;;;229.63;65.50;;;;;;;;;;5515449;26;20227;-41
2024/04/10 05:11:10;;;;;;;231.83;70.67;;;;;;;;;;5512420;25;20507;-41
2024/04/10 05:13:36;;;;;;;230.50;66.00;;;;;;;;;;5521137;26;20938;-41
2024/04/10 05:16:02;;;;;;;232.68;69.35;;;;;;;;;;5520982;25;20269;-42
2024/04/10 05:18:28;;;;;;;231.93;66.03;;;;;;;;;;5520823;26;20595;-41
2024/04/10 05:20:54;;;;;;;232.87;69.20;;;;;;;;;;5508500;26;20268;-40
2024/04/10 05:23:20;;;;;;;230.23;64.70;;;;;;;;;;5514742;26;20993;-42
2024/04/10 05:25:49;;;;;;;232.77;66.60;;;;;;;;;;5512134;26;20450;-41
2024/04/10 05:28:15;;;;;;;230.77;68.25;;;;;;;;;;5521060;25;20217;-41
2024/04/10 05:30:41;;;;;;;233.53;70.23;;;;;;;;;;5521070;26;20275;-42
2024/04/10 05:33:07;;;;;;;233.90;71.25;;;;;;;;;;5518372;25;20458;-41
2024/04/10 05:35:33;;;;;;;233.17;70.20;;;;;;;;;;5515920;25;20230;-41
2024/04/10 05:37:59;;;;;;;234.93;73.55;;;;;;;;;;5519007;26;20792;-41
2024/04/10 05:40:25;;;;;;;232.07;67.50;;;;;;;;;;5505735;26;20225;-42
2024/04/10 05:42:51;;;;;;;231.90;68.63;;;;;;;;;;5520589;26;20682;-42
2024/04/10 05:45:18;;;;;;;235.40;71.05;;;;;;;;;;5521622;26;20217;-41
2024/04/10 05:47:51;;;;;;;235.70;72.20;;;;;;;;;;5518820;25;20221;-42
2024/04/10 05:50:17;;;;;;;236.07;70.70;;;;;;;;;;5492715;26;20731;-41
2024/04/10 05:52:43;;;;;;;233.52;67.45;;;;;;;;;;5512140;25;20272;-41
2024/04/10 05:55:10;;;;;;;236.27;70.30;;;;;;;;;;5520654;25;20278;-42
2024/04/10 05:57:36;;;;;;;234.82;71.22;;;;;;;;;;5521020;26;20696;-42
2024/04/10 06:00:07;;;;;;;234.63;68.03;;;;;;;;;;5523378;25;20225;-42
2024/04/10 06:02:34;;;;;;;232.05;67.07;;;;;;;;;;5517980;26;20446;-42
2024/04/10 06:05:00;;;;;;;236.50;70.53;;;;;;;;;;5514626;26;20588;-41
2024/04/10 06:07:26;;;;;;;232.82;68.00;;;;;;;;;;5511911;26;20225;-41
2024/04/10 06:09:55;;;;;;;233.17;68.67;;;;;;;;;;5521129;26;20256;-41
2024/04/10 06:12:22;;;;;;;233.85;68.25;;;;;;;;;;5520982;26;20446;-42
2024/04/10 06:14:51;;;;;;;234.20;67.43;;;;;;;;;;5517988;25;20282;-41
2024/04/10 06:17:20;;;;;;;234.57;70.43;;;;;;;;;;5497202;26;20273;-42
2024/04/10 06:19:46;;;;;;;236.55;72.00;;;;;;;;;;5518243;25;20217;-41
2024/04/10 06:22:12;;;;;;;237.30;72.83;;;;;;;;;;5510394;26;20804;-41
2024/04/10 06:24:38;;;;;;;233.83;69.50;;;;;;;;;;5520403;25;20503;-41
2024/04/10 06:27:04;;;;;;;236.95;73.38;;;;;;;;;;5518074;25;20500;-41
2024/04/10 06:29:30;;;;;;;236.20;73.30;;;;;;;;;;5510997;25;20217;-42
2024/04/10 06:31:56;;;;;;;238.10;72.13;;;;;;;;;;5508247;26;20812;-41
2024/04/10 06:34:22;;;;;;;237.13;74.47;;;;;;;;;;5506345;26;20435;-42
2024/04/10 06:36:48;;;;;;;233.10;68.93;;;;;;;;;;5506202;26;20448;-41
2024/04/10 06:39:14;;;;;;;231.73;67.00;;;;;;;;;;5515659;26;20500;-42
2024/04/10 06:41:40;;;;;;;234.73;72.40;;;;;;;;;;5506224;26;20562;-42
2024/04/10 06:44:07;;;;;;;235.30;71.67;;;;;;;;;;5519942;25;20597;-42
2024/04/10 06:46:33;;;;;;;234.07;67.47;;;;;;;;;;5501253;25;20524;-41
2024/04/10 06:48:59;;;;;;;234.20;69.33;;;;;;;;;;5506786;26;20257;-42
2024/04/10 06:51:24;;;;;;;233.87;70.03;;;;;;;;;;5512716;26;20500;-42
2024/04/10 06:53:50;;;;;;;236.57;72.93;;;;;;;;;;5501649;26;20945;-41
2024/04/10 06:56:16;;;;;;;234.67;70.27;;;;;;;;;;5515304;26;20452;-42
2024/04/10 06:58:43;;;;;;;240.23;74.33;;;;;;;;;;5514463;25;20458;-42
2024/04/10 07:01:09;;;;;;;237.95;71.25;;;;;;;;;;5521257;26;20505;-42
2024/04/10 07:03:36;;;;;;;238.32;73.07;;;;;;;;;;5519836;26;20221;-42
2024/04/10 07:06:16;;;;;;;242.82;76.03;;;;;;;;;;5518252;26;20222;-42
2024/04/10 07:08:48;;;;;;;240.93;74.85;;;;;;;;;;5517436;25;20275;-41
2024/04/10 07:11:21;;;;;;;238.88;73.43;;;;;;;;;;5516533;26;20256;-42
2024/04/10 07:13:53;;;;;;;240.32;75.72;;;;;;;;;;5516425;25;20330;-42
2024/04/10 07:16:20;;;;;;;236.00;71.45;;;;;;;;;;5494322;26;20217;-42
2024/04/10 07:18:46;;;;;;;243.80;78.93;;;;;;;;;;5514795;25;20267;-42
2024/04/10 07:21:13;;;;;;;239.15;72.90;;;;;;;;;;5513626;26;20230;-42
2024/04/10 07:23:40;;;;;;;237.88;72.00;;;;;;;;;;5512131;26;20602;-41
2024/04/10 07:26:15;;;;;;;240.45;76.60;;;;;;;;;;5493290;26;20266;-42
2024/04/10 07:28:44;;;;;;;242.07;77.82;;;;;;;;;;5512338;26;20682;-42
2024/04/10 07:31:11;;;;;;;242.65;77.18;;;;;;;;;;5517711;26;20229;-41
2024/04/10 07:33:40;;;;;;;237.98;73.32;;;;;;;;;;5512581;25;20223;-41
2024/04/10 07:36:21;;;;;;;240.27;73.30;;;;;;;;;;5488712;26;20329;-42
2024/04/10 07:38:48;;;;;;;240.05;72.63;;;;;;;;;;5500115;26;20222;-42
2024/04/10 07:41:14;;;;;;;243.38;76.60;;;;;;;;;;5506376;26;20218;-42
2024/04/10 07:43:40;;;;;;;242.30;75.13;;;;;;;;;;5519858;26;20719;-42
2024/04/10 07:46:12;;;;;;;241.48;74.28;;;;;;;;;;5518572;25;20228;-42
2024/04/10 07:48:38;;;;;;;243.18;77.63;;;;;;;;;;5524731;25;20747;-42
2024/04/10 07:51:08;;;;;;;243.18;76.10;;;;;;;;;;5522723;26;20224;-42
2024/04/10 07:53:35;;;;;;;241.32;75.40;;;;;;;;;;5520635;26;20225;-41
2024/04/10 07:56:01;;;;;;;244.23;75.32;;;;;;;;;;5519282;25;20284;-42
2024/04/10 07:58:28;;;;;;;244.68;79.35;;;;;;;;;;5507345;26;20233;-42
2024/04/10 08:00:56;;;;;;;242.33;77.33;;;;;;;;;;5512446;26;20456;-42
2024/04/10 08:03:26;;;;;;;244.47;78.90;;;;;;;;;;5523431;25;20458;-42
2024/04/10 08:05:52;;;;;;;243.87;78.93;;;;;;;;;;5516531;26;20444;-41
2024/04/10 08:08:18;;;;;;;242.53;75.90;;;;;;;;;;5512837;26;20437;-42
2024/04/10 08:10:44;;;;;;;244.47;76.17;;;;;;;;;;5514184;25;20505;-42
2024/04/10 08:13:10;;;;;;;244.37;79.57;;;;;;;;;;5513055;25;20528;-42
2024/04/10 08:15:37;;;;;;;241.27;75.27;;;;;;;;;;5515396;26;20449;-41
2024/04/10 08:18:03;;;;;;;242.07;73.27;;;;;;;;;;5520113;26;20454;-42
2024/04/10 08:20:29;;;;;;;242.20;75.27;;;;;;;;;;5513662;25;20436;-42
2024/04/10 08:22:55;;;;;;;246.63;82.60;;;;;;;;;;5510187;26;20502;-42
2024/04/10 08:25:21;;;;;;;248.07;81.90;;;;;;;;;;5500769;26;20447;-42
2024/04/10 08:27:47;;;;;;;241.20;75.60;;;;;;;;;;5515584;25;20536;-42
2024/04/10 08:30:13;;;;;;;238.63;73.87;;;;;;;;;;5522095;26;20457;-42
2024/04/10 08:32:39;;;;;;;241.23;76.07;;;;;;;;;;5512212;25;20454;-42
2024/04/10 08:35:06;;;;;;;242.93;78.97;;;;;;;;;;5522390;25;20229;-42
2024/04/10 08:37:32;;;;;;;240.68;74.93;;;;;;;;;;5519872;26;20272;-42
2024/04/10 08:39:58;;;;;;;239.53;74.00;;;;;;;;;;5518842;26;20235;-42
2024/04/10 08:42:27;;;;;;;240.70;74.70;;;;;;;;;;5517755;26;20511;-42
2024/04/10 08:44:53;;;;;;;241.13;74.03;;;;;;;;;;5517329;25;20469;-42
2024/04/10 08:47:20;;;;;;;241.67;76.27;;;;;;;;;;5521125;25;20333;-42
2024/04/10 08:49:46;;;;;;;239.23;75.05;;;;;;;;;;5510004;26;21025;-42
2024/04/10 08:52:13;;;;;;;241.40;77.13;;;;;;;;;;5514389;26;20617;-42
2024/04/10 08:54:39;;;;;;;241.93;74.40;;;;;;;;;;5513346;25;20220;-42
2024/04/10 08:57:05;;;;;;;241.43;77.17;;;;;;;;;;5511849;26;20231;-42
2024/04/10 08:59:32;;;;;;;240.27;76.00;;;;;;;;;;5515224;26;20454;-42
2024/04/10 09:02:01;;;;;;;237.07;71.93;;;;;;;;;;5519509;25;20466;-42
2024/04/10 09:04:27;;;;;;;240.10;73.97;;;;;;;;;;5500684;26;20276;-42
2024/04/10 09:07:00;;;;;;;239.13;75.67;;;;;;;;;;5509565;26;20323;-42
2024/04/10 09:09:26;;;;;;;241.53;74.87;;;;;;;;;;5508609;25;20457;-42
2024/04/10 09:11:52;;;;;;;244.70;77.40;;;;;;;;;;5521936;25;20466;-42
2024/04/10 09:14:18;;;;;;;248.13;86.87;;;;;;;;;;5493960;26;20571;-42
2024/04/10 09:16:44;;;;;;;245.00;80.27;;;;;;;;;;5513373;26;20858;-42
2024/04/10 09:19:17;;;;;;;243.23;76.93;;;;;;;;;;5487326;26;20503;-42
2024/04/10 09:21:44;;;;;;;243.50;77.35;;;;;;;;;;5515266;26;20493;-42
2024/04/10 09:24:10;;;;;;;242.97;76.80;;;;;;;;;;5515227;25;20228;-42
2024/04/10 09:26:41;;;;;;;246.10;79.70;;;;;;;;;;5497497;26;20449;-42
2024/04/10 09:29:12;;;;;;;243.03;76.17;;;;;;;;;;5492448;25;20451;-42
2024/04/10 09:31:39;;;;;;;244.80;80.00;;;;;;;;;;5517952;26;20883;-42
2024/04/10 09:34:06;;;;;;;243.40;79.17;;;;;;;;;;5504884;26;20655;-42
2024/04/10 09:36:33;;;;;;;246.40;82.27;;;;;;;;;;5513387;25;20466;-42
2024/04/10 09:39:07;;;;;;;247.17;79.93;;;;;;;;;;5510597;26;20509;-42
2024/04/10 09:41:35;;;;;;;245.60;80.07;;;;;;;;;;5497640;26;20441;-42
2024/04/10 09:44:03;;;;;;;243.70;77.00;;;;;;;;;;5511051;26;20555;-42
2024/04/10 09:46:34;;;;;;;247.83;82.27;;;;;;;;;;5499313;25;20452;-42
2024/04/10 09:49:07;;;;;;;251.87;84.57;;;;;;;;;;5516323;25;20458;-42
2024/04/10 09:51:34;;;;;;;247.50;80.77;;;;;;;;;;5511970;25;20454;-42
2024/04/10 09:54:00;;;;;;;249.47;80.77;;;;;;;;;;5504877;26;20444;-42
2024/04/10 09:56:26;;;;;;;249.33;83.43;;;;;;;;;;5521484;25;20438;-42
2024/04/10 09:58:53;;;;;;;250.73;86.73;;;;;;;;;;5520852;25;20575;-42
2024/04/10 10:01:25;;;;;;;250.27;85.13;;;;;;;;;;5519576;26;20443;-42
2024/04/10 10:03:57;;;;;;;253.07;88.40;;;;;;;;;;5518916;26;21097;-42
2024/04/10 10:06:28;;;;;;;250.90;86.37;;;;;;;;;;5523032;26;20500;-42
2024/04/10 10:08:54;;;;;;;249.57;85.50;;;;;;;;;;5517813;26;20448;-42
2024/04/10 10:11:20;;;;;;;253.47;92.20;;;;;;;;;;5517492;26;20505;-42
2024/04/10 10:13:56;;;;;;;254.57;92.20;;;;;;;;;;5514617;26;20510;-42
2024/04/10 10:16:25;;;;;;;254.17;92.17;;;;;;;;;;5514033;26;20453;-42
2024/04/10 10:19:00;;;;;;;248.70;85.77;;;;;;;;;;5513271;25;20507;-42
2024/04/10 10:21:27;;;;;;;248.23;84.50;;;;;;;;;;5513980;26;20441;-42
2024/04/10 10:23:57;;;;;;;250.97;87.57;;;;;;;;;;5517376;26;20499;-42
2024/04/10 10:26:23;;;;;;;250.20;85.67;;;;;;;;;;5509613;26;21101;-42
2024/04/10 10:28:50;;;;;;;251.70;87.77;;;;;;;;;;5507780;26;20446;-42
2024/04/10 10:31:19;;;;;;;247.93;83.00;;;;;;;;;;5479232;26;20512;-42
2024/04/10 10:33:47;;;;;;;248.30;85.40;;;;;;;;;;5509609;26;20569;-42
2024/04/10 10:36:14;;;;;;;251.00;89.13;;;;;;;;;;5515846;26;20503;-42
2024/04/10 10:38:40;;;;;;;249.30;84.47;;;;;;;;;;5513946;26;20502;-42
2024/04/10 10:41:07;;;;;;;249.57;84.63;;;;;;;;;;5521020;25;20446;-42
2024/04/10 10:43:33;;;;;;;249.53;83.70;;;;;;;;;;5520169;26;20474;-42
2024/04/10 10:45:59;;;;;;;246.00;80.13;;;;;;;;;;5518828;25;20528;-42
2024/04/10 10:48:28;;;;;;;246.40;81.40;;;;;;;;;;5517941;25;20435;-41
2024/04/10 10:50:55;;;;;;;247.27;82.07;;;;;;;;;;5516926;26;20505;-42
2024/04/10 10:53:22;;;;;;;250.00;86.10;;;;;;;;;;5522679;26;20918;-42
2024/04/10 10:55:51;;;;;;;249.57;82.17;;;;;;;;;;5515878;26;20497;-42
2024/04/10 10:58:17;;;;;;;248.27;83.20;;;;;;;;;;5514897;26;20495;-42
2024/04/10 11:00:43;;;;;;;248.27;83.37;;;;;;;;;;5513886;26;20438;-42
2024/04/10 11:03:10;;;;;;;248.33;80.57;;;;;;;;;;5512668;25;20594;-42
2024/04/10 11:05:36;;;;;;;248.43;82.73;;;;;;;;;;5514868;25;20449;-42
2024/04/10 11:08:02;;;;;;;249.80;85.17;;;;;;;;;;5518829;25;20454;-42
2024/04/10 11:10:29;;;;;;;247.83;82.30;;;;;;;;;;5510549;26;20465;-42
2024/04/10 11:13:04;;;;;;;244.40;78.40;;;;;;;;;;5509401;26;20478;-42
2024/04/10 11:15:39;;;;;;;241.97;73.00;;;;;;;;;;5508576;26;20438;-42
2024/04/10 11:18:05;;;;;;;248.27;82.60;;;;;;;;;;5507937;25;20500;-42
2024/04/10 11:20:32;;;;;;;245.13;78.57;;;;;;;;;;5500249;25;21024;-42
2024/04/10 11:23:07;;;;;;;248.37;82.57;;;;;;;;;;5517057;26;20551;-42
2024/04/10 11:25:34;;;;;;;252.47;85.77;;;;;;;;;;5498853;26;21049;-42
2024/04/10 11:28:03;;;;;;;251.30;84.80;;;;;;;;;;5521243;26;20447;-42
2024/04/10 11:30:30;;;;;;;252.27;91.17;;;;;;;;;;5521069;26;20584;-42
2024/04/10 11:32:56;;;;;;;249.07;83.03;;;;;;;;;;5510145;26;20797;-42
2024/04/10 11:35:23;;;;;;;248.63;83.07;;;;;;;;;;5517063;26;20446;-42
2024/04/10 11:37:52;;;;;;;246.70;82.30;;;;;;;;;;5500270;25;20608;-42
2024/04/10 11:40:19;;;;;;;247.27;82.77;;;;;;;;;;5497083;26;20555;-42
2024/04/10 11:42:45;;;;;;;249.20;85.63;;;;;;;;;;5501342;26;20555;-42
2024/04/10 11:45:11;;;;;;;256.57;95.93;;;;;;;;;;5512274;26;20446;-42
2024/04/10 11:47:37;;;;;;;260.27;96.83;;;;;;;;;;5499304;26;20573;-42
2024/04/10 11:50:07;;;;;;;254.30;89.87;;;;;;;;;;5507777;26;20507;-42
2024/04/10 11:52:34;;;;;;;251.37;87.23;;;;;;;;;;5506932;26;20537;-43
2024/04/10 11:55:00;;;;;;;259.73;99.73;;;;;;;;;;5512162;26;20431;-42
2024/04/10 11:57:26;;;;;;;249.07;87.43;;;;;;;;;;5499164;26;20502;-41
2024/04/10 11:59:52;;;;;;;258.47;97.13;;;;;;;;;;5507605;26;20536;-42
2024/04/10 12:02:18;;;;;;;253.00;88.40;;;;;;;;;;5507247;25;20826;-42
2024/04/10 12:04:44;;;;;;;251.43;87.27;;;;;;;;;;5500234;26;20443;-42
2024/04/10 12:07:10;;;;;;;245.77;79.67;;;;;;;;;;5521558;26;20447;-42
2024/04/10 12:09:39;;;;;;;246.70;80.63;;;;;;;;;;5513398;26;20569;-42
2024/04/10 12:12:05;;;;;;;249.73;83.53;;;;;;;;;;5522359;26;20923;-42
2024/04/10 12:14:31;;;;;;;248.17;82.60;;;;;;;;;;5521453;26;20517;-42
2024/04/10 12:17:00;;;;;;;249.47;80.47;;;;;;;;;;5519575;25;20510;-42
2024/04/10 12:19:29;;;;;;;247.47;81.10;;;;;;;;;;5510239;26;20513;-42
2024/04/10 12:21:55;;;;;;;252.17;89.50;;;;;;;;;;5514196;26;20451;-42
2024/04/10 12:24:21;;;;;;;248.20;84.73;;;;;;;;;;5502597;26;20725;-42
2024/04/10 12:26:47;;;;;;;254.77;92.13;;;;;;;;;;5516446;25;20814;-43
2024/04/10 12:29:13;;;;;;;257.07;96.17;;;;;;;;;;5485202;26;20496;-43
2024/04/10 12:31:39;;;;;;;254.77;93.27;;;;;;;;;;5505589;26;20914;-43
2024/04/10 12:34:05;;;;;;;255.83;97.40;;;;;;;;;;5509059;26;20970;-43
2024/04/10 12:39:16;;;;;;;253.17;94.47;;;;;;;;;;5498094;26;20572;-43
2024/04/10 12:41:43;;;;;;;249.20;89.13;;;;;;;;;;5514142;26;20528;-43
2024/04/10 12:44:17;;;;;;;252.00;90.70;;;;;;;;;;5511045;25;20490;-42
2024/04/10 12:46:43;;;;;;;255.33;93.43;;;;;;;;;;5495922;26;20505;-42
2024/04/10 12:49:10;;;;;;;253.67;91.50;;;;;;;;;;5507270;26;20853;-42
2024/04/10 12:51:36;;;;;;;249.67;86.80;;;;;;;;;;5522932;25;20502;-42
2024/04/10 12:54:02;;;;;;;248.57;82.70;;;;;;;;;;5521423;26;20569;-42
2024/04/10 12:56:28;;;;;;;253.87;92.73;;;;;;;;;;5523917;25;21019;-42
2024/04/10 12:58:54;;;;;;;248.70;86.10;;;;;;;;;;5520290;26;20461;-43
2024/04/10 13:01:20;;;;;;;253.47;92.57;;;;;;;;;;5518759;25;20450;-43
2024/04/10 13:03:46;;;;;;;253.83;91.63;;;;;;;;;;5514933;26;20513;-43
2024/04/10 13:06:12;;;;;;;255.97;98.40;;;;;;;;;;5515052;26;20494;-43
2024/04/10 13:08:38;;;;;;;250.80;91.37;;;;;;;;;;5519776;26;20517;-42
2024/04/10 13:11:08;;;;;;;247.60;86.33;;;;;;;;;;5502013;26;20452;-42
2024/04/10 13:13:35;;;;;;;251.17;91.60;;;;;;;;;;5513976;26;20466;-42
2024/04/10 13:16:01;;;;;;;251.40;93.27;;;;;;;;;;5513545;26;20503;-43
2024/04/10 13:18:27;;;;;;;257.50;100.50;;;;;;;;;;5513444;25;21124;-43
2024/04/10 13:20:54;;;;;;;254.10;96.50;;;;;;;;;;5495648;25;20439;-43
2024/04/10 13:23:21;;;;;;;257.93;104.27;;;;;;;;;;5511538;26;20455;-43
2024/04/10 13:25:47;;;;;;;255.67;100.03;;;;;;;;;;5499686;26;20485;-43
2024/04/10 13:28:13;;;;;;;256.63;103.40;;;;;;;;;;5505368;26;20618;-43
2024/04/10 13:30:39;;;;;;;256.33;105.27;;;;;;;;;;5504100;26;20442;-43
2024/04/10 13:33:05;;;;;;;260.57;109.50;;;;;;;;;;5494018;26;20573;-43
2024/04/10 13:35:31;;;;;;;257.00;108.40;;;;;;;;;;5516299;26;20492;-43
2024/04/10 13:37:57;;;;;;;257.43;110.23;;;;;;;;;;5506938;26;20451;-43
2024/04/10 13:40:25;;;;;;;256.97;109.77;;;;;;;;;;5524032;25;20450;-43
2024/04/10 13:42:51;;;;;;;258.67;113.77;;;;;;;;;;5520047;26;20503;-43
2024/04/10 13:45:18;;;;;;;261.23;115.77;;;;;;;;;;5517997;25;20454;-43
2024/04/10 13:47:44;;;;;;;253.03;100.50;;;;;;;;;;5518068;25;20559;-43
2024/04/10 13:50:10;;;;;;;256.53;107.63;;;;;;;;;;5516888;26;20459;-43
2024/04/10 13:52:36;;;;;;;263.70;113.53;;;;;;;;;;5520071;25;20992;-43
2024/04/10 13:55:03;;;;;;;256.87;111.60;;;;;;;;;;5520006;25;20466;-43
2024/04/10 13:57:29;;;;;;;258.37;110.47;;;;;;;;;;5514696;25;20454;-43
2024/04/10 13:59:55;;;;;;;259.37;113.57;;;;;;;;;;5513740;26;20458;-43
2024/04/10 14:02:21;;;;;;;262.13;113.13;;;;;;;;;;5512647;25;20445;-43
2024/04/10 14:04:47;;;;;;;253.47;98.07;;;;;;;;;;5512555;26;20443;-43
2024/04/10 14:07:13;;;;;;;255.40;98.27;;;;;;;;;;5518799;26;20442;-43